M I D A S
Marine Information and Data Acquisition System
Tripno 1403 of the Zeeleeuw from 2007-11-20 08:30:43 to 2007-11-20 17:03:29
Back to CruiseResearch ActivitiesStationsMapUnderway DataData graphs

EquipmentUnitsComments
TimeDGPSUTC
LatitudeDGPSDM.mWGS84
LongitudeDGPSDM.mWGS84
SpeedMeteo Stationm/sRelative wind speed
DirectionMeteo StationdegRelative wind direction
TemperatureMeteo Stationdeg CelciusAir temperature
PressureMeteo StationPaAtmospheric pressure
HumidityMeteo Station%Relative humidity
Missing or incorrect values are displayed as -999
Metereological data collected by the RV Zeeleeuw from 2007-11-20 08:29:58 to 2007-11-20 17:13:43
Time Latitude Longitude Speed Direction Temperature Pressure Humidity
2007-11-20 08:31 51°13.616 2°56.04 -999 -999 -999 -999 -999
2007-11-20 08:32 51°13.653 2°55.914 -999 -999 -999 -999 -999
2007-11-20 08:33 51°13.689 2°55.801 -999 -999 -999 -999 -999
2007-11-20 08:34 51°13.701 2°55.726 -999 -999 -999 -999 -999
2007-11-20 08:35 51°13.711 2°55.72 -999 -999 -999 -999 -999
2007-11-20 08:36 51°13.753 2°55.71 -999 -999 -999 -999 -999
2007-11-20 08:37 51°13.849 2°55.625 -999 -999 -999 -999 -999
2007-11-20 08:38 51°13.971 2°55.523 -999 -999 -999 -999 -999
2007-11-20 08:39 51°14.084 2°55.434 -999 -999 -999 -999 -999
2007-11-20 08:40 51°14.208 2°55.315 -999 -999 -999 -999 -999
2007-11-20 08:41 51°14.329 2°55.117 -999 -999 -999 -999 -999
2007-11-20 08:42 51°14.453 2°54.867 -999 -999 -999 -999 -999
2007-11-20 08:43 51°14.617 2°54.668 -999 -999 -999 -999 -999
2007-11-20 08:44 51°14.763 2°54.45 -999 -999 -999 -999 -999
2007-11-20 08:45 51°14.914 2°54.232 -999 -999 -999 -999 -999
2007-11-20 08:46 51°15.093 2°54.061 -999 -999 -999 -999 -999
2007-11-20 08:47 51°15.282 2°53.916 -999 -999 -999 -999 -999
2007-11-20 08:48 51°15.471 2°53.769 -999 -999 -999 -999 -999
2007-11-20 08:49 51°15.658 2°53.614 -999 -999 -999 -999 -999
2007-11-20 08:50 51°15.843 2°53.456 -999 -999 -999 -999 -999
2007-11-20 08:51 51°16.032 2°53.306 -999 -999 -999 -999 -999
2007-11-20 08:52 51°16.221 2°53.156 -999 -999 -999 -999 -999
2007-11-20 08:53 51°16.412 2°53.011 -999 -999 -999 -999 -999
2007-11-20 08:54 51°16.611 2°52.883 -999 -999 -999 -999 -999
2007-11-20 08:55 51°16.804 2°52.743 -999 -999 -999 -999 -999
2007-11-20 08:56 51°16.996 2°52.599 -999 -999 -999 -999 -999
2007-11-20 08:57 51°17.19 2°52.457 -999 -999 -999 -999 -999
2007-11-20 08:58 51°17.381 2°52.306 -999 -999 -999 -999 -999
2007-11-20 08:59 51°17.575 2°52.163 -999 -999 -999 -999 -999
2007-11-20 09:00 51°17.771 2°52.023 -999 -999 -999 -999 -999
2007-11-20 09:01 51°17.963 2°51.873 -999 -999 -999 -999 -999
2007-11-20 09:02 51°18.159 2°51.732 -999 -999 -999 -999 -999
2007-11-20 09:03 51°18.355 2°51.587 -999 -999 -999 -999 -999
2007-11-20 09:04 51°18.552 2°51.445 -999 -999 -999 -999 -999
2007-11-20 09:05 51°18.75 2°51.304 -999 -999 -999 -999 -999
2007-11-20 09:06 51°18.946 2°51.164 -999 -999 -999 -999 -999
2007-11-20 09:07 51°19.138 2°51.018 -999 -999 -999 -999 -999
2007-11-20 09:08 51°19.331 2°50.876 -999 -999 -999 -999 -999
2007-11-20 09:09 51°19.523 2°50.733 -999 -999 -999 -999 -999
2007-11-20 09:10 51°19.716 2°50.592 -999 -999 -999 -999 -999
2007-11-20 09:11 51°19.91 2°50.454 -999 -999 -999 -999 -999
2007-11-20 09:12 51°20.104 2°50.315 -999 -999 -999 -999 -999
2007-11-20 09:13 51°20.301 2°50.182 -999 -999 -999 -999 -999
2007-11-20 09:14 51°20.499 2°50.046 -999 -999 -999 -999 -999
2007-11-20 09:15 51°20.696 2°49.913 -999 -999 -999 -999 -999
2007-11-20 09:16 51°20.894 2°49.778 -999 -999 -999 -999 -999
2007-11-20 09:17 51°21.094 2°49.643 -999 -999 -999 -999 -999
2007-11-20 09:18 51°21.293 2°49.508 -999 -999 -999 -999 -999
2007-11-20 09:19 51°21.489 2°49.362 -999 -999 -999 -999 -999
2007-11-20 09:20 51°21.687 2°49.226 -999 -999 -999 -999 -999
2007-11-20 09:21 51°21.887 2°49.091 -999 -999 -999 -999 -999
2007-11-20 09:22 51°22.085 2°48.96 -999 -999 -999 -999 -999
2007-11-20 09:23 51°22.275 2°48.814 -999 -999 -999 -999 -999
2007-11-20 09:24 51°22.401 2°48.57 -999 -999 -999 -999 -999
2007-11-20 09:25 51°22.427 2°48.274 -999 -999 -999 -999 -999
2007-11-20 09:26 51°22.459 2°47.973 -999 -999 -999 -999 -999
2007-11-20 09:27 51°22.493 2°47.673 -999 -999 -999 -999 -999
2007-11-20 09:28 51°22.535 2°47.373 -999 -999 -999 -999 -999
2007-11-20 09:29 51°22.577 2°47.072 -999 -999 -999 -999 -999
2007-11-20 09:30 51°22.609 2°46.77 -999 -999 -999 -999 -999
2007-11-20 09:31 51°22.644 2°46.466 -999 -999 -999 -999 -999
2007-11-20 09:32 51°22.678 2°46.16 -999 -999 -999 -999 -999
2007-11-20 09:33 51°22.701 2°45.848 -999 -999 -999 -999 -999
2007-11-20 09:34 51°22.726 2°45.544 -999 -999 -999 -999 -999
2007-11-20 09:35 51°22.747 2°45.237 -999 -999 -999 -999 -999
2007-11-20 09:36 51°22.77 2°44.924 -999 -999 -999 -999 -999
2007-11-20 09:37 51°22.788 2°44.62 -999 -999 -999 -999 -999
2007-11-20 09:38 51°22.802 2°44.325 -999 -999 -999 -999 -999
2007-11-20 09:39 51°22.807 2°44.031 -999 -999 -999 -999 -999
2007-11-20 09:40 51°22.813 2°43.741 -999 -999 -999 -999 -999
2007-11-20 09:41 51°22.822 2°43.439 -999 -999 -999 -999 -999
2007-11-20 09:42 51°22.829 2°43.144 -999 -999 -999 -999 -999
2007-11-20 09:43 51°22.837 2°42.847 -999 -999 -999 -999 -999
2007-11-20 09:44 51°22.847 2°42.549 -999 -999 -999 -999 -999
2007-11-20 09:45 51°22.857 2°42.251 -999 -999 -999 -999 -999
2007-11-20 09:46 51°22.871 2°41.949 -999 -999 -999 -999 -999
2007-11-20 09:47 51°22.879 2°41.648 -999 -999 -999 -999 -999
2007-11-20 09:48 51°22.884 2°41.344 -999 -999 -999 -999 -999
2007-11-20 09:49 51°22.888 2°41.04 -999 -999 -999 -999 -999
2007-11-20 09:50 51°22.891 2°40.735 -999 -999 -999 -999 -999
2007-11-20 09:51 51°22.896 2°40.432 -999 -999 -999 -999 -999
2007-11-20 09:52 51°22.899 2°40.129 -999 -999 -999 -999 -999
2007-11-20 09:53 51°22.901 2°39.825 -999 -999 -999 -999 -999
2007-11-20 09:54 51°22.901 2°39.522 -999 -999 -999 -999 -999
2007-11-20 09:55 51°22.903 2°39.224 -999 -999 -999 -999 -999
2007-11-20 09:56 51°22.903 2°38.922 -999 -999 -999 -999 -999
2007-11-20 09:57 51°22.905 2°38.629 -999 -999 -999 -999 -999
2007-11-20 09:58 51°22.908 2°38.332 -999 -999 -999 -999 -999
2007-11-20 09:59 51°22.909 2°38.035 -999 -999 -999 -999 -999
2007-11-20 10:00 51°22.912 2°37.739 -999 -999 -999 -999 -999
2007-11-20 10:01 51°22.919 2°37.438 -999 -999 -999 -999 -999
2007-11-20 10:02 51°22.922 2°37.138 -999 -999 -999 -999 -999
2007-11-20 10:03 51°22.924 2°36.836 -999 -999 -999 -999 -999
2007-11-20 10:04 51°22.926 2°36.531 -999 -999 -999 -999 -999
2007-11-20 10:05 51°22.929 2°36.223 -999 -999 -999 -999 -999
2007-11-20 10:06 51°22.93 2°35.915 -999 -999 -999 -999 -999
2007-11-20 10:07 51°22.932 2°35.607 -999 -999 -999 -999 -999
2007-11-20 10:08 51°22.933 2°35.298 -999 -999 -999 -999 -999
2007-11-20 10:09 51°22.935 2°34.985 -999 -999 -999 -999 -999
2007-11-20 10:10 51°22.978 2°34.673 -999 -999 -999 -999 -999
2007-11-20 10:11 51°22.961 2°34.37 -999 -999 -999 -999 -999
2007-11-20 10:12 51°22.919 2°34.073 -999 -999 -999 -999 -999
2007-11-20 10:13 51°22.879 2°33.772 -999 -999 -999 -999 -999
2007-11-20 10:14 51°22.842 2°33.468 -999 -999 -999 -999 -999
2007-11-20 10:15 51°22.805 2°33.166 -999 -999 -999 -999 -999
2007-11-20 10:16 51°22.789 2°32.859 -999 -999 -999 -999 -999
2007-11-20 10:17 51°22.777 2°32.553 -999 -999 -999 -999 -999
2007-11-20 10:18 51°22.771 2°32.245 -999 -999 -999 -999 -999
2007-11-20 10:19 51°22.761 2°31.944 -999 -999 -999 -999 -999
2007-11-20 10:20 51°22.75 2°31.644 -999 -999 -999 -999 -999
2007-11-20 10:21 51°22.739 2°31.344 -999 -999 -999 -999 -999
2007-11-20 10:22 51°22.729 2°31.043 -999 -999 -999 -999 -999
2007-11-20 10:23 51°22.722 2°30.741 -999 -999 -999 -999 -999
2007-11-20 10:24 51°22.711 2°30.439 -999 -999 -999 -999 -999
2007-11-20 10:25 51°22.704 2°30.135 -999 -999 -999 -999 -999
2007-11-20 10:26 51°22.699 2°29.829 -999 -999 -999 -999 -999
2007-11-20 10:27 51°22.693 2°29.521 -999 -999 -999 -999 -999
2007-11-20 10:28 51°22.687 2°29.213 -999 -999 -999 -999 -999
2007-11-20 10:29 51°22.677 2°28.908 -999 -999 -999 -999 -999
2007-11-20 10:30 51°22.67 2°28.601 -999 -999 -999 -999 -999
2007-11-20 10:31 51°22.661 2°28.296 -999 -999 -999 -999 -999
2007-11-20 10:32 51°22.655 2°27.985 -999 -999 -999 -999 -999
2007-11-20 10:33 51°22.649 2°27.677 -999 -999 -999 -999 -999
2007-11-20 10:34 51°22.641 2°27.368 -999 -999 -999 -999 -999
2007-11-20 10:35 51°22.632 2°27.06 -999 -999 -999 -999 -999
2007-11-20 10:36 51°22.623 2°26.753 -999 -999 -999 -999 -999
2007-11-20 10:37 51°22.615 2°26.441 -999 -999 -999 -999 -999
2007-11-20 10:38 51°22.608 2°26.132 -999 -999 -999 -999 -999
2007-11-20 10:39 51°22.617 2°25.817 -999 -999 -999 -999 -999
2007-11-20 10:40 51°22.661 2°25.516 -999 -999 -999 -999 -999
2007-11-20 10:41 51°22.719 2°25.208 -999 -999 -999 -999 -999
2007-11-20 10:42 51°22.785 2°24.909 -999 -999 -999 -999 -999
2007-11-20 10:43 51°22.921 2°24.668 -999 -999 -999 -999 -999
2007-11-20 10:44 51°23.085 2°24.451 -999 -999 -999 -999 -999
2007-11-20 10:45 51°23.258 2°24.252 -999 -999 -999 -999 -999
2007-11-20 10:46 51°23.455 2°24.107 -999 -999 -999 -999 -999
2007-11-20 10:47 51°23.65 2°23.955 -999 -999 -999 -999 -999
2007-11-20 10:48 51°23.846 2°23.8 -999 -999 -999 -999 -999
2007-11-20 10:49 51°24.039 2°23.642 -999 -999 -999 -999 -999
2007-11-20 10:50 51°24.233 2°23.485 -999 -999 -999 -999 -999
2007-11-20 10:51 51°24.425 2°23.325 -999 -999 -999 -999 -999
2007-11-20 10:52 51°24.615 2°23.163 -999 -999 -999 -999 -999
2007-11-20 10:53 51°24.803 2°23.001 -999 -999 -999 -999 -999
2007-11-20 10:54 51°24.994 2°22.842 -999 -999 -999 -999 -999
2007-11-20 10:55 51°25.187 2°22.687 -999 -999 -999 -999 -999
2007-11-20 10:56 51°25.377 2°22.527 -999 -999 -999 -999 -999
2007-11-20 10:57 51°25.567 2°22.367 -999 -999 -999 -999 -999
2007-11-20 10:58 51°25.76 2°22.218 -999 -999 -999 -999 -999
2007-11-20 10:59 51°25.956 2°22.084 -999 -999 -999 -999 -999
2007-11-20 11:00 51°26.151 2°21.949 -999 -999 -999 -999 -999
2007-11-20 11:01 51°26.348 2°21.813 -999 -999 -999 -999 -999
2007-11-20 11:02 51°26.548 2°21.682 -999 -999 -999 -999 -999
2007-11-20 11:03 51°26.715 2°21.597 -999 -999 -999 -999 -999
2007-11-20 11:04 51°26.888 2°21.506 -999 -999 -999 -999 -999
2007-11-20 11:05 51°27.096 2°21.391 -999 -999 -999 -999 -999
2007-11-20 11:06 51°27.311 2°21.288 -999 -999 -999 -999 -999
2007-11-20 11:07 51°27.525 2°21.176 -999 -999 -999 -999 -999
2007-11-20 11:08 51°27.739 2°21.072 -999 -999 -999 -999 -999
2007-11-20 11:09 51°27.953 2°20.972 -999 -999 -999 -999 -999
2007-11-20 11:10 51°28.164 2°20.869 -999 -999 -999 -999 -999
2007-11-20 11:11 51°28.377 2°20.772 -999 -999 -999 -999 -999
2007-11-20 11:12 51°28.588 2°20.671 -999 -999 -999 -999 -999
2007-11-20 11:13 51°28.8 2°20.567 -999 -999 -999 -999 -999
2007-11-20 11:14 51°29.011 2°20.466 -999 -999 -999 -999 -999
2007-11-20 11:15 51°29.223 2°20.364 -999 -999 -999 -999 -999
2007-11-20 11:16 51°29.436 2°20.265 -999 -999 -999 -999 -999
2007-11-20 11:17 51°29.647 2°20.161 -999 -999 -999 -999 -999
2007-11-20 11:18 51°29.846 2°20.069 -999 -999 -999 -999 -999
2007-11-20 11:19 51°30.032 2°19.98 -999 -999 -999 -999 -999
2007-11-20 11:20 51°30.164 2°19.923 -999 -999 -999 -999 -999
2007-11-20 11:21 51°30.27 2°19.885 -999 -999 -999 -999 -999
2007-11-20 11:22 51°30.364 2°19.837 -999 -999 -999 -999 -999
2007-11-20 11:23 51°30.437 2°19.773 -999 -999 -999 -999 -999
2007-11-20 11:24 51°30.489 2°19.725 -999 -999 -999 -999 -999
2007-11-20 11:25 51°30.501 2°19.729 -999 -999 -999 -999 -999
2007-11-20 11:26 51°30.511 2°19.732 -999 -999 -999 -999 -999
2007-11-20 11:27 51°30.526 2°19.733 -999 -999 -999 -999 -999
2007-11-20 11:28 51°30.544 2°19.728 -999 -999 -999 -999 -999
2007-11-20 11:29 51°30.567 2°19.722 -999 -999 -999 -999 -999
2007-11-20 11:30 51°30.59 2°19.718 -999 -999 -999 -999 -999
2007-11-20 11:31 51°30.638 2°19.763 -999 -999 -999 -999 -999
2007-11-20 11:32 51°30.65 2°19.849 -999 -999 -999 -999 -999
2007-11-20 11:33 51°30.644 2°19.884 -999 -999 -999 -999 -999
2007-11-20 11:34 51°30.637 2°19.886 -999 -999 -999 -999 -999
2007-11-20 11:35 51°30.635 2°19.882 -999 -999 -999 -999 -999
2007-11-20 11:36 51°30.625 2°19.881 -999 -999 -999 -999 -999
2007-11-20 11:37 51°30.609 2°19.877 -999 -999 -999 -999 -999
2007-11-20 11:38 51°30.591 2°19.844 -999 -999 -999 -999 -999
2007-11-20 11:39 51°30.573 2°19.817 -999 -999 -999 -999 -999
2007-11-20 11:40 51°30.555 2°19.786 -999 -999 -999 -999 -999
2007-11-20 11:41 51°30.529 2°19.75 -999 -999 -999 -999 -999
2007-11-20 11:42 51°30.512 2°19.695 -999 -999 -999 -999 -999
2007-11-20 11:43 51°30.509 2°19.661 -999 -999 -999 -999 -999
2007-11-20 11:44 51°30.51 2°19.64 -999 -999 -999 -999 -999
2007-11-20 11:45 51°30.518 2°19.625 -999 -999 -999 -999 -999
2007-11-20 11:46 51°30.515 2°19.617 -999 -999 -999 -999 -999
2007-11-20 11:47 51°30.498 2°19.657 -999 -999 -999 -999 -999
2007-11-20 11:48 51°30.529 2°19.735 -999 -999 -999 -999 -999
2007-11-20 11:49 51°30.575 2°19.765 -999 -999 -999 -999 -999
2007-11-20 11:50 51°30.616 2°19.797 -999 -999 -999 -999 -999
2007-11-20 11:51 51°30.611 2°19.887 -999 -999 -999 -999 -999
2007-11-20 11:52 51°30.586 2°19.892 -999 -999 -999 -999 -999
2007-11-20 11:53 51°30.582 2°19.882 -999 -999 -999 -999 -999
2007-11-20 11:54 51°30.583 2°19.874 -999 -999 -999 -999 -999
2007-11-20 11:55 51°30.585 2°19.867 -999 -999 -999 -999 -999
2007-11-20 11:56 51°30.55 2°19.796 -999 -999 -999 -999 -999
2007-11-20 11:57 51°30.516 2°19.731 -999 -999 -999 -999 -999
2007-11-20 11:58 51°30.501 2°19.681 -999 -999 -999 -999 -999
2007-11-20 11:59 51°30.501 2°19.63 -999 -999 -999 -999 -999
2007-11-20 12:00 51°30.502 2°19.594 -999 -999 -999 -999 -999
2007-11-20 12:01 51°30.506 2°19.566 -999 -999 -999 -999 -999
2007-11-20 12:02 51°30.512 2°19.548 -999 -999 -999 -999 -999
2007-11-20 12:03 51°30.521 2°19.535 -999 -999 -999 -999 -999
2007-11-20 12:04 51°30.532 2°19.523 -999 -999 -999 -999 -999
2007-11-20 12:05 51°30.543 2°19.511 -999 -999 -999 -999 -999
2007-11-20 12:06 51°30.555 2°19.498 -999 -999 -999 -999 -999
2007-11-20 12:07 51°30.569 2°19.484 -999 -999 -999 -999 -999
2007-11-20 12:08 51°30.582 2°19.47 -999 -999 -999 -999 -999
2007-11-20 12:09 51°30.596 2°19.456 -999 -999 -999 -999 -999
2007-11-20 12:10 51°30.61 2°19.443 -999 -999 -999 -999 -999
2007-11-20 12:11 51°30.626 2°19.43 -999 -999 -999 -999 -999
2007-11-20 12:12 51°30.632 2°19.417 -999 -999 -999 -999 -999
2007-11-20 12:13 51°30.613 2°19.44 -999 -999 -999 -999 -999
2007-11-20 12:14 51°30.604 2°19.498 -999 -999 -999 -999 -999
2007-11-20 12:15 51°30.599 2°19.538 -999 -999 -999 -999 -999
2007-11-20 12:16 51°30.595 2°19.548 -999 -999 -999 -999 -999
2007-11-20 12:17 51°30.597 2°19.543 -999 -999 -999 -999 -999
2007-11-20 12:18 51°30.603 2°19.535 -999 -999 -999 -999 -999
2007-11-20 12:19 51°30.611 2°19.524 -999 -999 -999 -999 -999
2007-11-20 12:20 51°30.622 2°19.508 -999 -999 -999 -999 -999
2007-11-20 12:21 51°30.636 2°19.493 -999 -999 -999 -999 -999
2007-11-20 12:22 51°30.651 2°19.479 -999 -999 -999 -999 -999
2007-11-20 12:23 51°30.665 2°19.463 -999 -999 -999 -999 -999
2007-11-20 12:24 51°30.679 2°19.448 -999 -999 -999 -999 -999
2007-11-20 12:25 51°30.693 2°19.433 -999 -999 -999 -999 -999
2007-11-20 12:26 51°30.701 2°19.416 -999 -999 -999 -999 -999
2007-11-20 12:27 51°30.682 2°19.424 -999 -999 -999 -999 -999
2007-11-20 12:28 51°30.661 2°19.475 -999 -999 -999 -999 -999
2007-11-20 12:29 51°30.65 2°19.511 -999 -999 -999 -999 -999
2007-11-20 12:30 51°30.645 2°19.536 -999 -999 -999 -999 -999
2007-11-20 12:31 51°30.645 2°19.545 -999 -999 -999 -999 -999
2007-11-20 12:32 51°30.649 2°19.538 -999 -999 -999 -999 -999
2007-11-20 12:33 51°30.657 2°19.521 -999 -999 -999 -999 -999
2007-11-20 12:34 51°30.668 2°19.504 -999 -999 -999 -999 -999
2007-11-20 12:35 51°30.679 2°19.486 -999 -999 -999 -999 -999
2007-11-20 12:36 51°30.675 2°19.468 -999 -999 -999 -999 -999
2007-11-20 12:37 51°30.648 2°19.498 -999 -999 -999 -999 -999
2007-11-20 12:38 51°30.621 2°19.577 -999 -999 -999 -999 -999
2007-11-20 12:39 51°30.63 2°19.63 -999 -999 -999 -999 -999
2007-11-20 12:40 51°30.638 2°19.613 -999 -999 -999 -999 -999
2007-11-20 12:41 51°30.643 2°19.591 -999 -999 -999 -999 -999
2007-11-20 12:42 51°30.65 2°19.572 -999 -999 -999 -999 -999
2007-11-20 12:43 51°30.66 2°19.551 -999 -999 -999 -999 -999
2007-11-20 12:44 51°30.671 2°19.532 -999 -999 -999 -999 -999
2007-11-20 12:45 51°30.682 2°19.514 -999 -999 -999 -999 -999
2007-11-20 12:46 51°30.694 2°19.497 -999 -999 -999 -999 -999
2007-11-20 12:47 51°30.738 2°19.46 -999 -999 -999 -999 -999
2007-11-20 12:48 51°30.751 2°19.372 -999 -999 -999 -999 -999
2007-11-20 12:49 51°30.762 2°19.353 -999 -999 -999 -999 -999
2007-11-20 12:50 51°30.776 2°19.339 -999 -999 -999 -999 -999
2007-11-20 12:51 51°30.79 2°19.324 -999 -999 -999 -999 -999
2007-11-20 12:52 51°30.803 2°19.308 -999 -999 -999 -999 -999
2007-11-20 12:53 51°30.801 2°19.288 -999 -999 -999 -999 -999
2007-11-20 12:54 51°30.779 2°19.299 -999 -999 -999 -999 -999
2007-11-20 12:55 51°30.749 2°19.342 -999 -999 -999 -999 -999
2007-11-20 12:56 51°30.726 2°19.37 -999 -999 -999 -999 -999
2007-11-20 12:57 51°30.713 2°19.375 -999 -999 -999 -999 -999
2007-11-20 12:58 51°30.704 2°19.374 -999 -999 -999 -999 -999
2007-11-20 12:59 51°30.702 2°19.365 -999 -999 -999 -999 -999
2007-11-20 13:00 51°30.702 2°19.346 -999 -999 -999 -999 -999
2007-11-20 13:01 51°30.695 2°19.328 -999 -999 -999 -999 -999
2007-11-20 13:02 51°30.68 2°19.334 -999 -999 -999 -999 -999
2007-11-20 13:03 51°30.674 2°19.367 -999 -999 -999 -999 -999
2007-11-20 13:04 51°30.679 2°19.389 -999 -999 -999 -999 -999
2007-11-20 13:05 51°30.682 2°19.395 -999 -999 -999 -999 -999
2007-11-20 13:06 51°30.683 2°19.393 -999 -999 -999 -999 -999
2007-11-20 13:07 51°30.66 2°19.461 -999 -999 -999 -999 -999
2007-11-20 13:08 51°30.622 2°19.518 -999 -999 -999 -999 -999
2007-11-20 13:09 51°30.599 2°19.507 -999 -999 -999 -999 -999
2007-11-20 13:10 51°30.586 2°19.482 -999 -999 -999 -999 -999
2007-11-20 13:11 51°30.581 2°19.46 -999 -999 -999 -999 -999
2007-11-20 13:12 51°30.582 2°19.437 -999 -999 -999 -999 -999
2007-11-20 13:13 51°30.587 2°19.413 -999 -999 -999 -999 -999
2007-11-20 13:14 51°30.595 2°19.388 -999 -999 -999 -999 -999
2007-11-20 13:15 51°30.603 2°19.363 -999 -999 -999 -999 -999
2007-11-20 13:16 51°30.612 2°19.338 -999 -999 -999 -999 -999
2007-11-20 13:17 51°30.62 2°19.313 -999 -999 -999 -999 -999
2007-11-20 13:18 51°30.629 2°19.286 -999 -999 -999 -999 -999
2007-11-20 13:19 51°30.638 2°19.261 -999 -999 -999 -999 -999
2007-11-20 13:20 51°30.648 2°19.237 -999 -999 -999 -999 -999
2007-11-20 13:21 51°30.654 2°19.209 -999 -999 -999 -999 -999
2007-11-20 13:22 51°30.631 2°19.19 -999 -999 -999 -999 -999
2007-11-20 13:23 51°30.606 2°19.22 -999 -999 -999 -999 -999
2007-11-20 13:24 51°30.611 2°19.266 -999 -999 -999 -999 -999
2007-11-20 13:25 51°30.629 2°19.293 -999 -999 -999 -999 -999
2007-11-20 13:26 51°30.645 2°19.312 -999 -999 -999 -999 -999
2007-11-20 13:27 51°30.66 2°19.322 -999 -999 -999 -999 -999
2007-11-20 13:28 51°30.675 2°19.327 -999 -999 -999 -999 -999
2007-11-20 13:29 51°30.69 2°19.326 -999 -999 -999 -999 -999
2007-11-20 13:30 51°30.706 2°19.318 -999 -999 -999 -999 -999
2007-11-20 13:31 51°30.725 2°19.317 -999 -999 -999 -999 -999
2007-11-20 13:32 51°30.747 2°19.339 -999 -999 -999 -999 -999
2007-11-20 13:33 51°30.767 2°19.37 -999 -999 -999 -999 -999
2007-11-20 13:34 51°30.79 2°19.398 -999 -999 -999 -999 -999
2007-11-20 13:35 51°30.812 2°19.411 -999 -999 -999 -999 -999
2007-11-20 13:36 51°30.83 2°19.407 -999 -999 -999 -999 -999
2007-11-20 13:37 51°30.849 2°19.41 -999 -999 -999 -999 -999
2007-11-20 13:38 51°30.835 2°19.467 -999 -999 -999 -999 -999
2007-11-20 13:39 51°30.778 2°19.483 -999 -999 -999 -999 -999
2007-11-20 13:40 51°30.736 2°19.485 -999 -999 -999 -999 -999
2007-11-20 13:41 51°30.704 2°19.482 -999 -999 -999 -999 -999
2007-11-20 13:42 51°30.677 2°19.471 -999 -999 -999 -999 -999
2007-11-20 13:43 51°30.651 2°19.461 -999 -999 -999 -999 -999
2007-11-20 13:44 51°30.63 2°19.448 -999 -999 -999 -999 -999
2007-11-20 13:45 51°30.619 2°19.435 -999 -999 -999 -999 -999
2007-11-20 13:46 51°30.619 2°19.41 -999 -999 -999 -999 -999
2007-11-20 13:47 51°30.627 2°19.38 -999 -999 -999 -999 -999
2007-11-20 13:48 51°30.636 2°19.354 -999 -999 -999 -999 -999
2007-11-20 13:49 51°30.647 2°19.329 -999 -999 -999 -999 -999
2007-11-20 13:50 51°30.657 2°19.303 -999 -999 -999 -999 -999
2007-11-20 13:51 51°30.666 2°19.277 -999 -999 -999 -999 -999
2007-11-20 13:52 51°30.673 2°19.25 -999 -999 -999 -999 -999
2007-11-20 13:53 51°30.679 2°19.221 -999 -999 -999 -999 -999
2007-11-20 13:54 51°30.684 2°19.192 -999 -999 -999 -999 -999
2007-11-20 13:55 51°30.666 2°19.158 -999 -999 -999 -999 -999
2007-11-20 13:56 51°30.631 2°19.212 -999 -999 -999 -999 -999
2007-11-20 13:57 51°30.651 2°19.248 -999 -999 -999 -999 -999
2007-11-20 13:58 51°30.673 2°19.247 -999 -999 -999 -999 -999
2007-11-20 13:59 51°30.689 2°19.238 -999 -999 -999 -999 -999
2007-11-20 14:00 51°30.701 2°19.218 -999 -999 -999 -999 -999
2007-11-20 14:01 51°30.712 2°19.191 -999 -999 -999 -999 -999
2007-11-20 14:02 51°30.719 2°19.16 -999 -999 -999 -999 -999
2007-11-20 14:03 51°30.721 2°19.127 -999 -999 -999 -999 -999
2007-11-20 14:04 51°30.724 2°19.095 -999 -999 -999 -999 -999
2007-11-20 14:05 51°30.727 2°19.064 -999 -999 -999 -999 -999
2007-11-20 14:06 51°30.731 2°19.033 -999 -999 -999 -999 -999
2007-11-20 14:07 51°30.735 2°19.004 -999 -999 -999 -999 -999
2007-11-20 14:08 51°30.739 2°18.973 -999 -999 -999 -999 -999
2007-11-20 14:09 51°30.743 2°18.939 -999 -999 -999 -999 -999
2007-11-20 14:10 51°30.747 2°18.906 -999 -999 -999 -999 -999
2007-11-20 14:11 51°30.752 2°18.873 -999 -999 -999 -999 -999
2007-11-20 14:12 51°30.789 2°18.84 -999 -999 -999 -999 -999
2007-11-20 14:13 51°30.801 2°18.73 -999 -999 -999 -999 -999
2007-11-20 14:14 51°30.779 2°18.657 -999 -999 -999 -999 -999
2007-11-20 14:15 51°30.766 2°18.605 -999 -999 -999 -999 -999
2007-11-20 14:16 51°30.759 2°18.565 -999 -999 -999 -999 -999
2007-11-20 14:17 51°30.754 2°18.529 -999 -999 -999 -999 -999
2007-11-20 14:18 51°30.754 2°18.496 -999 -999 -999 -999 -999
2007-11-20 14:19 51°30.757 2°18.462 -999 -999 -999 -999 -999
2007-11-20 14:20 51°30.753 2°18.423 -999 -999 -999 -999 -999
2007-11-20 14:21 51°30.696 2°18.433 -999 -999 -999 -999 -999
2007-11-20 14:22 51°30.57 2°18.534 -999 -999 -999 -999 -999
2007-11-20 14:23 51°30.385 2°18.641 -999 -999 -999 -999 -999
2007-11-20 14:24 51°30.2 2°18.764 -999 -999 -999 -999 -999
2007-11-20 14:25 51°30.014 2°18.891 -999 -999 -999 -999 -999
2007-11-20 14:26 51°29.828 2°19.019 -999 -999 -999 -999 -999
2007-11-20 14:27 51°29.641 2°19.146 -999 -999 -999 -999 -999
2007-11-20 14:28 51°29.454 2°19.275 -999 -999 -999 -999 -999
2007-11-20 14:29 51°29.267 2°19.401 -999 -999 -999 -999 -999
2007-11-20 14:30 51°29.081 2°19.529 -999 -999 -999 -999 -999
2007-11-20 14:31 51°28.895 2°19.653 -999 -999 -999 -999 -999
2007-11-20 14:32 51°28.707 2°19.778 -999 -999 -999 -999 -999
2007-11-20 14:33 51°28.524 2°19.912 -999 -999 -999 -999 -999
2007-11-20 14:34 51°28.349 2°20.064 -999 -999 -999 -999 -999
2007-11-20 14:35 51°28.173 2°20.216 -999 -999 -999 -999 -999
2007-11-20 14:36 51°27.996 2°20.37 -999 -999 -999 -999 -999
2007-11-20 14:37 51°27.819 2°20.521 -999 -999 -999 -999 -999
2007-11-20 14:38 51°27.65 2°20.693 -999 -999 -999 -999 -999
2007-11-20 14:39 51°27.48 2°20.869 -999 -999 -999 -999 -999
2007-11-20 14:40 51°27.311 2°21.048 -999 -999 -999 -999 -999
2007-11-20 14:41 51°27.14 2°21.222 -999 -999 -999 -999 -999
2007-11-20 14:42 51°26.968 2°21.395 -999 -999 -999 -999 -999
2007-11-20 14:43 51°26.794 2°21.567 -999 -999 -999 -999 -999
2007-11-20 14:44 51°26.622 2°21.737 -999 -999 -999 -999 -999
2007-11-20 14:45 51°26.45 2°21.906 -999 -999 -999 -999 -999
2007-11-20 14:46 51°26.278 2°22.079 -999 -999 -999 -999 -999
2007-11-20 14:47 51°26.108 2°22.25 -999 -999 -999 -999 -999
2007-11-20 14:48 51°25.938 2°22.419 -999 -999 -999 -999 -999
2007-11-20 14:49 51°25.766 2°22.593 -999 -999 -999 -999 -999
2007-11-20 14:50 51°25.593 2°22.763 -999 -999 -999 -999 -999
2007-11-20 14:51 51°25.42 2°22.933 -999 -999 -999 -999 -999
2007-11-20 14:52 51°25.247 2°23.104 -999 -999 -999 -999 -999
2007-11-20 14:53 51°25.074 2°23.273 -999 -999 -999 -999 -999
2007-11-20 14:54 51°24.902 2°23.444 -999 -999 -999 -999 -999
2007-11-20 14:55 51°24.73 2°23.615 -999 -999 -999 -999 -999
2007-11-20 14:56 51°24.555 2°23.783 -999 -999 -999 -999 -999
2007-11-20 14:57 51°24.373 2°23.928 -999 -999 -999 -999 -999
2007-11-20 14:58 51°24.191 2°24.075 -999 -999 -999 -999 -999
2007-11-20 14:59 51°24.006 2°24.228 -999 -999 -999 -999 -999
2007-11-20 15:00 51°23.822 2°24.383 -999 -999 -999 -999 -999
2007-11-20 15:01 51°23.636 2°24.537 -999 -999 -999 -999 -999
2007-11-20 15:02 51°23.451 2°24.691 -999 -999 -999 -999 -999
2007-11-20 15:03 51°23.263 2°24.841 -999 -999 -999 -999 -999
2007-11-20 15:04 51°23.076 2°24.993 -999 -999 -999 -999 -999
2007-11-20 15:05 51°22.89 2°25.145 -999 -999 -999 -999 -999
2007-11-20 15:06 51°22.706 2°25.299 -999 -999 -999 -999 -999
2007-11-20 15:07 51°22.521 2°25.448 -999 -999 -999 -999 -999
2007-11-20 15:08 51°22.336 2°25.597 -999 -999 -999 -999 -999
2007-11-20 15:09 51°22.151 2°25.745 -999 -999 -999 -999 -999
2007-11-20 15:10 51°21.964 2°25.891 -999 -999 -999 -999 -999
2007-11-20 15:11 51°21.817 2°26.097 -999 -999 -999 -999 -999
2007-11-20 15:12 51°21.812 2°26.396 -999 -999 -999 -999 -999
2007-11-20 15:13 51°21.806 2°26.705 -999 -999 -999 -999 -999
2007-11-20 15:14 51°21.78 2°27.013 -999 -999 -999 -999 -999
2007-11-20 15:15 51°21.762 2°27.322 -999 -999 -999 -999 -999
2007-11-20 15:16 51°21.746 2°27.631 -999 -999 -999 -999 -999
2007-11-20 15:17 51°21.731 2°27.94 -999 -999 -999 -999 -999
2007-11-20 15:18 51°21.714 2°28.247 -999 -999 -999 -999 -999
2007-11-20 15:19 51°21.699 2°28.554 -999 -999 -999 -999 -999
2007-11-20 15:20 51°21.683 2°28.859 -999 -999 -999 -999 -999
2007-11-20 15:21 51°21.665 2°29.163 -999 -999 -999 -999 -999
2007-11-20 15:22 51°21.648 2°29.468 -999 -999 -999 -999 -999
2007-11-20 15:23 51°21.631 2°29.771 -999 -999 -999 -999 -999
2007-11-20 15:24 51°21.615 2°30.073 -999 -999 -999 -999 -999
2007-11-20 15:25 51°21.601 2°30.377 -999 -999 -999 -999 -999
2007-11-20 15:26 51°21.588 2°30.68 -999 -999 -999 -999 -999
2007-11-20 15:27 51°21.574 2°30.982 -999 -999 -999 -999 -999
2007-11-20 15:28 51°21.56 2°31.283 -999 -999 -999 -999 -999
2007-11-20 15:29 51°21.548 2°31.584 -999 -999 -999 -999 -999
2007-11-20 15:30 51°21.535 2°31.887 -999 -999 -999 -999 -999
2007-11-20 15:31 51°21.514 2°32.194 -999 -999 -999 -999 -999
2007-11-20 15:32 51°21.465 2°32.5 -999 -999 -999 -999 -999
2007-11-20 15:33 51°21.39 2°32.794 -999 -999 -999 -999 -999
2007-11-20 15:34 51°21.313 2°33.088 -999 -999 -999 -999 -999
2007-11-20 15:35 51°21.227 2°33.375 -999 -999 -999 -999 -999
2007-11-20 15:36 51°21.138 2°33.66 -999 -999 -999 -999 -999
2007-11-20 15:37 51°21.042 2°33.942 -999 -999 -999 -999 -999
2007-11-20 15:38 51°20.946 2°34.223 -999 -999 -999 -999 -999
2007-11-20 15:39 51°20.849 2°34.503 -999 -999 -999 -999 -999
2007-11-20 15:40 51°20.755 2°34.78 -999 -999 -999 -999 -999
2007-11-20 15:41 51°20.662 2°35.055 -999 -999 -999 -999 -999
2007-11-20 15:42 51°20.567 2°35.329 -999 -999 -999 -999 -999
2007-11-20 15:43 51°20.475 2°35.604 -999 -999 -999 -999 -999
2007-11-20 15:44 51°20.382 2°35.879 -999 -999 -999 -999 -999
2007-11-20 15:45 51°20.285 2°36.154 -999 -999 -999 -999 -999
2007-11-20 15:46 51°20.191 2°36.431 -999 -999 -999 -999 -999
2007-11-20 15:47 51°20.094 2°36.706 -999 -999 -999 -999 -999
2007-11-20 15:48 51°20.001 2°36.984 -999 -999 -999 -999 -999
2007-11-20 15:49 51°19.903 2°37.26 -999 -999 -999 -999 -999
2007-11-20 15:50 51°19.808 2°37.538 -999 -999 -999 -999 -999
2007-11-20 15:51 51°19.71 2°37.815 -999 -999 -999 -999 -999
2007-11-20 15:52 51°19.614 2°38.092 -999 -999 -999 -999 -999
2007-11-20 15:53 51°19.516 2°38.371 -999 -999 -999 -999 -999
2007-11-20 15:54 51°19.416 2°38.649 -999 -999 -999 -999 -999
2007-11-20 15:55 51°19.314 2°38.928 -999 -999 -999 -999 -999
2007-11-20 15:56 51°19.211 2°39.208 -999 -999 -999 -999 -999
2007-11-20 15:57 51°19.109 2°39.491 -999 -999 -999 -999 -999
2007-11-20 15:58 51°19.009 2°39.776 -999 -999 -999 -999 -999
2007-11-20 15:59 51°18.911 2°40.056 -999 -999 -999 -999 -999
2007-11-20 16:00 51°18.812 2°40.332 -999 -999 -999 -999 -999
2007-11-20 16:01 51°18.713 2°40.599 -999 -999 -999 -999 -999
2007-11-20 16:02 51°18.611 2°40.868 -999 -999 -999 -999 -999
2007-11-20 16:03 51°18.509 2°41.135 -999 -999 -999 -999 -999
2007-11-20 16:04 51°18.406 2°41.404 -999 -999 -999 -999 -999
2007-11-20 16:05 51°18.302 2°41.677 -999 -999 -999 -999 -999
2007-11-20 16:06 51°18.202 2°41.954 -999 -999 -999 -999 -999
2007-11-20 16:07 51°18.12 2°42.24 -999 -999 -999 -999 -999
2007-11-20 16:08 51°18.067 2°42.54 -999 -999 -999 -999 -999
2007-11-20 16:09 51°18.03 2°42.846 -999 -999 -999 -999 -999
2007-11-20 16:10 51°17.993 2°43.152 -999 -999 -999 -999 -999
2007-11-20 16:11 51°17.925 2°43.446 -999 -999 -999 -999 -999
2007-11-20 16:12 51°17.82 2°43.716 -999 -999 -999 -999 -999
2007-11-20 16:13 51°17.715 2°43.982 -999 -999 -999 -999 -999
2007-11-20 16:14 51°17.603 2°44.245 -999 -999 -999 -999 -999
2007-11-20 16:15 51°17.49 2°44.508 -999 -999 -999 -999 -999
2007-11-20 16:16 51°17.373 2°44.771 -999 -999 -999 -999 -999
2007-11-20 16:17 51°17.259 2°45.035 -999 -999 -999 -999 -999
2007-11-20 16:18 51°17.138 2°45.296 -999 -999 -999 -999 -999
2007-11-20 16:19 51°16.982 2°45.522 -999 -999 -999 -999 -999
2007-11-20 16:20 51°16.816 2°45.74 -999 -999 -999 -999 -999
2007-11-20 16:21 51°16.637 2°45.927 -999 -999 -999 -999 -999
2007-11-20 16:22 51°16.453 2°46.104 -999 -999 -999 -999 -999
2007-11-20 16:23 51°16.3 2°46.325 -999 -999 -999 -999 -999
2007-11-20 16:24 51°16.21 2°46.603 -999 -999 -999 -999 -999
2007-11-20 16:25 51°16.123 2°46.89 -999 -999 -999 -999 -999
2007-11-20 16:26 51°16.036 2°47.178 -999 -999 -999 -999 -999
2007-11-20 16:27 51°15.952 2°47.465 -999 -999 -999 -999 -999
2007-11-20 16:28 51°15.867 2°47.751 -999 -999 -999 -999 -999
2007-11-20 16:29 51°15.78 2°48.038 -999 -999 -999 -999 -999
2007-11-20 16:30 51°15.689 2°48.324 -999 -999 -999 -999 -999
2007-11-20 16:31 51°15.587 2°48.601 -999 -999 -999 -999 -999
2007-11-20 16:32 51°15.492 2°48.884 -999 -999 -999 -999 -999
2007-11-20 16:33 51°15.388 2°49.163 -999 -999 -999 -999 -999
2007-11-20 16:34 51°15.311 2°49.458 -999 -999 -999 -999 -999
2007-11-20 16:35 51°15.251 2°49.757 -999 -999 -999 -999 -999
2007-11-20 16:36 51°15.197 2°50.056 -999 -999 -999 -999 -999
2007-11-20 16:37 51°15.139 2°50.354 -999 -999 -999 -999 -999
2007-11-20 16:38 51°15.093 2°50.602 -999 -999 -999 -999 -999
2007-11-20 16:39 51°15.049 2°50.831 -999 -999 -999 -999 -999
2007-11-20 16:40 51°15.006 2°51.059 -999 -999 -999 -999 -999
2007-11-20 16:41 51°14.964 2°51.287 -999 -999 -999 -999 -999
2007-11-20 16:42 51°14.921 2°51.515 -999 -999 -999 -999 -999
2007-11-20 16:43 51°14.878 2°51.744 -999 -999 -999 -999 -999
2007-11-20 16:44 51°14.837 2°51.974 -999 -999 -999 -999 -999
2007-11-20 16:45 51°14.795 2°52.205 -999 -999 -999 -999 -999
2007-11-20 16:46 51°14.76 2°52.44 -999 -999 -999 -999 -999
2007-11-20 16:47 51°14.732 2°52.677 -999 -999 -999 -999 -999
2007-11-20 16:48 51°14.706 2°52.89 -999 -999 -999 -999 -999
2007-11-20 16:49 51°14.684 2°53.048 -999 -999 -999 -999 -999
2007-11-20 16:50 51°14.665 2°53.187 -999 -999 -999 -999 -999
2007-11-20 16:51 51°14.647 2°53.295 -999 -999 -999 -999 -999
2007-11-20 16:52 51°14.63 2°53.393 -999 -999 -999 -999 -999
2007-11-20 16:53 51°14.613 2°53.485 -999 -999 -999 -999 -999
2007-11-20 16:54 51°14.594 2°53.571 -999 -999 -999 -999 -999
2007-11-20 16:55 51°14.578 2°53.646 -999 -999 -999 -999 -999
2007-11-20 16:56 51°14.563 2°53.717 -999 -999 -999 -999 -999
2007-11-20 16:57 51°14.55 2°53.787 -999 -999 -999 -999 -999
2007-11-20 16:58 51°14.537 2°53.855 -999 -999 -999 -999 -999
2007-11-20 16:59 51°14.522 2°53.932 -999 -999 -999 -999 -999
2007-11-20 17:00 51°14.502 2°54.06 -999 -999 -999 -999 -999
2007-11-20 17:01 51°14.473 2°54.318 -999 -999 -999 -999 -999
2007-11-20 17:02 51°14.438 2°54.629 -999 -999 -999 -999 -999
2007-11-20 17:03 51°14.383 2°54.936 -999 -999 -999 -999 -999
2007-11-20 17:04 51°14.282 2°55.206 -999 -999 -999 -999 -999
2007-11-20 17:05 51°14.169 2°55.364 -999 -999 -999 -999 -999
2007-11-20 17:06 51°14.052 2°55.459 -999 -999 -999 -999 -999
2007-11-20 17:07 51°13.931 2°55.55 -999 -999 -999 -999 -999
2007-11-20 17:08 51°13.818 2°55.638 -999 -999 -999 -999 -999
2007-11-20 17:09 51°13.74 2°55.735 -999 -999 -999 -999 -999
2007-11-20 17:10 51°13.682 2°55.846 -999 -999 -999 -999 -999
2007-11-20 17:11 51°13.636 2°55.95 -999 -999 -999 -999 -999
2007-11-20 17:12 51°13.609 2°56.04 -999 -999 -999 -999 -999
2007-11-20 17:13 51°13.601 2°56.086 -999 -999 -999 -999 -999